Time;durP1;ratioP1;P1;durP2;ratioP2;P2;SDS_P1;SDS_P2;PMS_P1;PMS_P2;Temp;Humidity;BMP_temperature;BMP_pressure;BME280_temperature;BME280_humidity;BME280_pressure;Samples;Min_cycle;Max_cycle;Signal;HPM_P1;HPM_P2
2022/10/16 00:01:05;;;;;;;3.60;1.67;;;17.80;87.50;;;;;;5000644;28;20474;-79
2022/10/16 00:03:34;;;;;;;4.53;1.60;;;17.80;87.50;;;;;;5006601;28;20547;-79
2022/10/16 00:06:02;;;;;;;4.77;1.27;;;17.80;87.50;;;;;;5011477;28;20469;-79
2022/10/16 00:08:31;;;;;;;5.87;1.77;;;17.90;87.50;;;;;;5002538;28;20453;-79
2022/10/16 00:11:06;;;;;;;3.90;1.77;;;17.80;87.50;;;;;;4996013;28;20489;-78
2022/10/16 00:13:35;;;;;;;5.10;1.90;;;17.80;87.50;;;;;;5001437;28;20475;-79
2022/10/16 00:16:04;;;;;;;4.40;1.63;;;17.80;87.50;;;;;;4994026;28;20503;-80
2022/10/16 00:18:32;;;;;;;3.57;1.57;;;17.80;87.60;;;;;;4998448;28;20460;-79
2022/10/16 00:21:04;;;;;;;5.47;1.57;;;17.80;87.60;;;;;;5002791;28;20474;-79
2022/10/16 00:23:33;;;;;;;4.50;1.90;;;17.80;87.60;;;;;;5001072;28;20468;-79
2022/10/16 00:26:05;;;;;;;3.50;1.60;;;17.80;87.60;;;;;;5019736;28;20454;-79
2022/10/16 00:28:34;;;;;;;4.40;1.53;;;17.80;87.60;;;;;;4996017;28;20515;-79
2022/10/16 00:31:05;;;;;;;5.67;1.77;;;17.80;87.60;;;;;;5017205;28;20492;-79
2022/10/16 00:33:33;;;;;;;6.53;1.70;;;17.80;87.60;;;;;;5010842;28;20460;-79
2022/10/16 00:36:01;;;;;;;5.80;1.80;;;17.80;87.60;;;;;;5019736;28;20469;-79
2022/10/16 00:38:29;;;;;;;4.17;1.80;;;17.80;87.60;;;;;;4997162;28;21024;-80
2022/10/16 00:40:57;;;;;;;3.83;1.40;;;17.80;87.70;;;;;;5004860;28;21055;-79
2022/10/16 00:43:40;;;;;;;6.23;1.77;;;17.80;87.70;;;;;;5018882;28;20457;-80
2022/10/16 00:46:16;;;;;;;5.27;1.70;;;17.80;87.70;;;;;;5002079;28;20458;-78
2022/10/16 00:48:50;;;;;;;5.67;2.00;;;17.80;87.70;;;;;;5005878;28;21021;-81
2022/10/16 00:51:23;;;;;;;3.50;1.70;;;17.80;87.70;;;;;;5020159;28;20509;-79
2022/10/16 00:53:52;;;;;;;4.67;1.50;;;17.80;87.70;;;;;;4999426;28;20525;-80
2022/10/16 00:56:20;;;;;;;5.43;1.53;;;17.80;87.70;;;;;;5004362;28;20456;-79
2022/10/16 00:58:49;;;;;;;4.20;1.53;;;17.80;87.70;;;;;;5015919;28;20449;-79
2022/10/16 01:01:17;;;;;;;4.07;2.17;;;17.80;87.70;;;;;;5001907;28;20524;-78
2022/10/16 01:03:45;;;;;;;4.23;2.00;;;17.80;87.70;;;;;;4998177;28;20491;-79
2022/10/16 01:06:23;;;;;;;4.60;1.90;;;17.80;87.70;;;;;;5018467;28;20461;-79
2022/10/16 01:09:11;;;;;;;4.53;1.97;;;17.80;87.70;;;;;;5004133;28;20452;-78
2022/10/16 01:11:45;;;;;;;6.80;2.20;;;17.80;87.70;;;;;;5003418;28;20473;-80
2022/10/16 01:14:22;;;;;;;5.80;2.30;;;17.80;87.70;;;;;;4999435;28;20449;-80
2022/10/16 01:16:56;;;;;;;5.50;2.03;;;17.80;87.70;;;;;;5008199;28;20460;-78
2022/10/16 01:19:41;;;;;;;3.80;1.70;;;17.70;87.90;;;;;;5003700;28;20967;-79
2022/10/16 01:22:10;;;;;;;3.80;1.30;;;17.70;87.90;;;;;;5002090;28;20481;-79
2022/10/16 01:24:41;;;;;;;4.03;1.20;;;17.70;88.00;;;;;;5000306;28;20497;-79
2022/10/16 01:27:14;;;;;;;4.43;1.33;;;17.70;88.00;;;;;;5002383;28;20461;-78
2022/10/16 01:29:51;;;;;;;3.40;1.17;;;17.70;88.10;;;;;;5002695;28;20950;-79
2022/10/16 01:32:30;;;;;;;2.83;0.80;;;17.70;88.00;;;;;;5016629;28;20997;-80
2022/10/16 01:35:02;;;;;;;3.23;1.00;;;17.70;88.00;;;;;;4999426;28;20454;-79
2022/10/16 01:37:37;;;;;;;3.40;1.20;;;17.70;88.00;;;;;;5006903;28;20461;-80
2022/10/16 01:40:10;;;;;;;3.40;0.97;;;17.70;88.10;;;;;;5002953;28;21285;-80
2022/10/16 01:42:43;;;;;;;3.00;0.80;;;17.70;88.10;;;;;;5002552;28;20475;-78
2022/10/16 01:45:17;;;;;;;3.10;0.83;;;17.70;88.10;;;;;;5003717;28;20457;-79
2022/10/16 01:47:47;;;;;;;2.90;0.93;;;17.70;88.10;;;;;;5007637;28;20468;-80
2022/10/16 01:50:17;;;;;;;2.90;0.73;;;17.70;88.10;;;;;;5003769;28;20449;-79
2022/10/16 01:52:48;;;;;;;2.97;0.73;;;17.70;88.10;;;;;;5005991;28;20462;-80
2022/10/16 01:55:21;;;;;;;2.77;0.80;;;17.70;88.10;;;;;;5008005;28;20999;-80
2022/10/16 01:57:52;;;;;;;2.93;0.70;;;17.70;88.10;;;;;;4999253;28;20450;-80
2022/10/16 02:00:23;;;;;;;2.73;0.60;;;17.70;88.10;;;;;;5001010;28;20457;-78
2022/10/16 02:02:55;;;;;;;3.33;0.90;;;17.70;88.10;;;;;;4999721;28;20457;-78
2022/10/16 02:05:27;;;;;;;3.30;0.77;;;17.70;88.10;;;;;;5002019;28;20992;-80
2022/10/16 02:07:55;;;;;;;2.80;0.70;;;17.70;88.10;;;;;;5004996;28;21021;-78
2022/10/16 02:10:30;;;;;;;3.30;1.10;;;17.70;88.10;;;;;;5000943;28;20556;-79
2022/10/16 02:13:05;;;;;;;4.80;0.90;;;17.70;88.10;;;;;;5002348;28;20996;-80
2022/10/16 02:15:34;;;;;;;3.90;1.00;;;17.80;88.20;;;;;;5014918;28;20470;-80
2022/10/16 02:18:03;;;;;;;7.30;1.23;;;17.70;88.10;;;;;;5001052;28;20516;-80
2022/10/16 02:20:34;;;;;;;3.90;1.57;;;17.80;88.20;;;;;;5000417;28;20978;-78
2022/10/16 02:23:03;;;;;;;4.87;1.33;;;17.70;88.10;;;;;;5006227;28;20503;-78
2022/10/16 02:25:35;;;;;;;3.50;1.50;;;17.70;88.20;;;;;;5014272;28;20525;-79
2022/10/16 02:28:12;;;;;;;3.97;1.83;;;17.70;88.30;;;;;;5001628;28;20556;-79
2022/10/16 02:30:46;;;;;;;3.40;1.40;;;17.70;88.30;;;;;;5011072;28;20489;-79
2022/10/16 02:33:16;;;;;;;7.33;1.90;;;17.80;88.30;;;;;;5011479;28;20481;-79
2022/10/16 02:35:47;;;;;;;4.07;1.70;;;17.80;88.30;;;;;;5002777;28;21150;-79
2022/10/16 02:38:17;;;;;;;4.93;1.67;;;17.80;88.30;;;;;;5021025;28;20508;-78
2022/10/16 02:40:45;;;;;;;4.90;1.43;;;17.80;88.30;;;;;;5001962;28;20484;-80
2022/10/16 02:43:14;;;;;;;3.77;1.77;;;17.80;88.30;;;;;;4998426;28;20453;-79
2022/10/16 02:45:43;;;;;;;5.23;1.50;;;17.80;88.20;;;;;;5003581;28;20449;-79
2022/10/16 02:48:11;;;;;;;3.80;1.40;;;17.80;88.20;;;;;;5004996;28;20518;-78
2022/10/16 02:50:39;;;;;;;5.63;2.07;;;17.80;88.20;;;;;;5009489;28;20573;-80
2022/10/16 02:53:07;;;;;;;5.10;1.70;;;17.80;88.20;;;;;;4997579;28;20511;-80
2022/10/16 02:55:35;;;;;;;5.77;1.80;;;17.80;88.20;;;;;;5010657;28;20453;-80
2022/10/16 02:58:04;;;;;;;4.00;1.73;;;17.80;88.10;;;;;;5009381;28;20461;-79
2022/10/16 03:00:33;;;;;;;4.60;1.60;;;17.80;88.10;;;;;;5010616;28;20926;-80
2022/10/16 03:03:01;;;;;;;7.03;2.37;;;17.80;88.10;;;;;;5002173;28;21175;-80
2022/10/16 03:05:29;;;;;;;6.60;1.93;;;17.80;88.10;;;;;;5000138;28;20899;-78
2022/10/16 03:07:59;;;;;;;6.17;1.33;;;17.80;88.10;;;;;;5004249;28;20545;-77
2022/10/16 03:10:28;;;;;;;5.90;1.70;;;17.80;88.10;;;;;;5000241;28;20885;-79
2022/10/16 03:12:56;;;;;;;10.20;1.80;;;17.80;88.10;;;;;;5017464;28;20481;-80
2022/10/16 03:15:24;;;;;;;5.17;1.83;;;17.80;88.20;;;;;;5001865;28;20871;-78
2022/10/16 03:17:53;;;;;;;4.30;1.73;;;17.70;88.10;;;;;;5003563;28;20484;-81
2022/10/16 03:20:21;;;;;;;4.73;1.57;;;17.70;88.20;;;;;;5000490;28;20515;-78
2022/10/16 03:22:49;;;;;;;5.60;1.80;;;17.70;88.20;;;;;;5004046;28;20457;-80
2022/10/16 03:25:17;;;;;;;5.47;2.07;;;17.70;88.20;;;;;;5005279;28;20476;-80
2022/10/16 03:27:45;;;;;;;4.70;2.00;;;17.70;88.30;;;;;;5014254;28;20508;-78
2022/10/16 03:30:13;;;;;;;4.90;1.77;;;17.70;88.30;;;;;;5001831;28;20503;-79
2022/10/16 03:32:41;;;;;;;10.13;1.80;;;17.80;88.20;;;;;;5010986;28;21060;-79
2022/10/16 03:35:11;;;;;;;4.70;1.70;;;17.80;88.20;;;;;;5003362;28;21057;-81
2022/10/16 03:37:39;;;;;;;5.77;1.90;;;17.80;88.20;;;;;;4998882;28;20462;-80
2022/10/16 03:40:08;;;;;;;4.20;1.80;;;17.80;88.20;;;;;;4996196;28;20474;-80
2022/10/16 03:42:36;;;;;;;4.90;2.13;;;17.80;88.10;;;;;;4999089;28;20453;-79
2022/10/16 03:45:04;;;;;;;5.60;1.80;;;17.80;88.10;;;;;;5004494;28;20548;-79
2022/10/16 03:47:33;;;;;;;5.83;2.00;;;17.80;88.10;;;;;;4998264;28;20461;-80
2022/10/16 03:50:01;;;;;;;7.17;1.80;;;17.80;88.10;;;;;;5015357;28;20468;-80
2022/10/16 03:52:31;;;;;;;4.63;1.80;;;17.80;88.10;;;;;;5000112;28;20568;-80
2022/10/16 03:55:00;;;;;;;6.23;1.90;;;17.80;88.00;;;;;;5000619;28;20529;-79
2022/10/16 03:57:28;;;;;;;5.60;1.60;;;17.70;88.00;;;;;;5000358;28;20448;-80
2022/10/16 03:59:56;;;;;;;5.00;1.70;;;17.70;88.00;;;;;;5011695;28;20551;-79
2022/10/16 04:02:24;;;;;;;4.70;1.97;;;17.70;88.00;;;;;;4995711;28;20481;-80
2022/10/16 04:04:52;;;;;;;4.47;1.80;;;17.70;88.10;;;;;;5012891;28;20876;-80
2022/10/16 04:07:20;;;;;;;6.67;1.90;;;17.70;88.10;;;;;;4998017;28;20981;-80
2022/10/16 04:09:51;;;;;;;4.23;1.80;;;17.70;88.10;;;;;;4995473;28;20485;-80
2022/10/16 04:12:19;;;;;;;3.90;1.53;;;17.70;88.10;;;;;;5013930;28;20481;-81
2022/10/16 04:14:47;;;;;;;10.23;1.80;;;17.70;88.10;;;;;;5011280;28;20493;-80
2022/10/16 04:17:17;;;;;;;6.07;1.87;;;17.70;88.10;;;;;;5025455;28;20492;-77
2022/10/16 04:19:44;;;;;;;4.57;1.63;;;17.70;88.10;;;;;;5010702;28;20576;-81
2022/10/16 04:22:12;;;;;;;5.17;1.90;;;17.70;88.10;;;;;;5021879;28;20485;-78
2022/10/16 04:24:41;;;;;;;4.30;1.50;;;17.70;88.00;;;;;;5022963;28;20453;-78
2022/10/16 04:27:10;;;;;;;3.93;1.73;;;17.70;88.10;;;;;;5007732;28;20452;-78
2022/10/16 04:29:38;;;;;;;6.73;1.60;;;17.70;88.10;;;;;;5010317;28;20807;-78
2022/10/16 04:32:06;;;;;;;4.30;1.60;;;17.70;88.00;;;;;;5009192;28;20492;-79
2022/10/16 04:34:34;;;;;;;4.93;1.80;;;17.70;88.00;;;;;;5015528;28;20465;-80
2022/10/16 04:37:02;;;;;;;5.93;1.67;;;17.70;88.00;;;;;;4996368;28;20791;-80
2022/10/16 04:39:30;;;;;;;4.23;1.50;;;17.70;88.00;;;;;;4997836;28;20469;-80
2022/10/16 04:41:58;;;;;;;10.83;2.00;;;17.70;88.00;;;;;;5015908;28;20489;-79
2022/10/16 04:44:27;;;;;;;5.10;1.93;;;17.70;88.00;;;;;;5004706;28;20457;-79
2022/10/16 04:46:55;;;;;;;4.60;1.33;;;17.70;88.00;;;;;;5024005;28;20454;-79
2022/10/16 04:49:23;;;;;;;6.07;1.80;;;17.70;88.00;;;;;;5024701;28;20457;-79
2022/10/16 04:51:51;;;;;;;4.03;1.50;;;17.80;88.00;;;;;;5002984;28;20473;-81
2022/10/16 04:54:19;;;;;;;6.03;1.40;;;17.70;87.90;;;;;;5017836;28;20535;-79
2022/10/16 04:56:50;;;;;;;4.50;1.53;;;17.70;88.00;;;;;;5003034;28;20457;-80
2022/10/16 04:59:18;;;;;;;4.40;1.40;;;17.70;88.00;;;;;;5021101;28;20891;-78
2022/10/16 05:01:48;;;;;;;7.00;1.67;;;17.70;88.00;;;;;;5004869;28;20476;-78
2022/10/16 05:04:16;;;;;;;4.17;1.40;;;17.70;88.00;;;;;;5002713;28;20501;-79
2022/10/16 05:06:44;;;;;;;3.67;1.50;;;17.70;87.90;;;;;;4992916;28;20469;-80
2022/10/16 05:09:12;;;;;;;7.60;1.60;;;17.80;87.90;;;;;;5025866;28;20461;-80
2022/10/16 05:11:40;;;;;;;4.10;1.37;;;17.70;87.90;;;;;;4999482;28;20986;-80
2022/10/16 05:14:08;;;;;;;6.00;1.73;;;17.70;87.90;;;;;;5004102;28;20874;-78
2022/10/16 05:16:41;;;;;;;6.33;1.90;;;17.70;87.80;;;;;;4996432;28;20454;-78
2022/10/16 05:19:11;;;;;;;6.53;2.30;;;17.70;87.90;;;;;;5007161;28;20954;-80
2022/10/16 05:21:55;;;;;;;4.10;1.80;;;17.70;87.90;;;;;;4997349;28;20491;-80
2022/10/16 05:24:23;;;;;;;6.70;1.83;;;17.70;87.80;;;;;;5003570;28;20516;-80
2022/10/16 05:26:52;;;;;;;4.13;1.83;;;17.70;87.80;;;;;;4994779;28;20449;-80
2022/10/16 05:29:20;;;;;;;4.43;1.70;;;17.70;87.80;;;;;;5010260;28;20452;-78
2022/10/16 05:31:50;;;;;;;4.50;1.47;;;17.70;87.80;;;;;;5017635;28;20497;-79
2022/10/16 05:34:19;;;;;;;6.07;1.90;;;17.70;87.80;;;;;;5003397;28;20478;-80
2022/10/16 05:36:48;;;;;;;5.90;1.83;;;17.70;87.80;;;;;;5002193;28;20537;-80
2022/10/16 05:39:16;;;;;;;4.50;1.70;;;17.70;87.80;;;;;;5001115;28;20465;-79
2022/10/16 05:41:44;;;;;;;4.73;1.40;;;17.70;87.80;;;;;;5014719;28;20991;-80
2022/10/16 05:44:12;;;;;;;7.13;2.03;;;17.70;87.80;;;;;;5000839;28;20954;-78
2022/10/16 05:46:40;;;;;;;7.57;2.10;;;17.70;87.90;;;;;;5019258;28;20520;-80
2022/10/16 05:49:08;;;;;;;4.93;1.50;;;17.70;87.80;;;;;;5007024;28;20487;-80
2022/10/16 05:51:38;;;;;;;3.83;1.67;;;17.70;87.90;;;;;;5021142;28;20480;-79
2022/10/16 05:54:06;;;;;;;4.53;1.70;;;17.70;87.90;;;;;;5006571;28;20492;-80
2022/10/16 05:56:34;;;;;;;5.23;1.93;;;17.70;87.90;;;;;;5003782;28;20452;-79
2022/10/16 05:59:01;;;;;;;3.80;1.40;;;17.70;87.90;;;;;;4997549;28;20979;-79
2022/10/16 06:01:30;;;;;;;5.40;1.73;;;17.70;87.90;;;;;;5006484;28;20884;-79
2022/10/16 06:03:59;;;;;;;6.00;1.97;;;17.70;87.90;;;;;;5008270;28;20454;-79
2022/10/16 06:06:29;;;;;;;6.33;1.90;;;17.70;87.90;;;;;;5006194;28;20464;-79
2022/10/16 06:08:59;;;;;;;5.50;1.90;;;17.70;87.90;;;;;;5013263;28;20480;-78
2022/10/16 06:11:29;;;;;;;5.13;1.90;;;17.70;87.80;;;;;;5002687;28;20503;-79
2022/10/16 06:14:01;;;;;;;5.40;1.63;;;17.70;87.80;;;;;;5000039;28;20982;-79
2022/10/16 06:16:29;;;;;;;6.60;1.77;;;17.70;87.80;;;;;;5017094;28;20452;-80
2022/10/16 06:18:59;;;;;;;3.50;1.30;;;17.70;87.80;;;;;;5016553;28;20472;-78
2022/10/16 06:21:28;;;;;;;5.30;1.73;;;17.80;87.70;;;;;;5000748;28;20486;-81
2022/10/16 06:23:57;;;;;;;5.60;2.40;;;17.80;87.70;;;;;;5012843;28;21275;-78
2022/10/16 06:26:28;;;;;;;5.20;1.80;;;17.80;87.60;;;;;;5004539;28;20519;-78
2022/10/16 06:28:58;;;;;;;6.77;2.20;;;17.80;87.60;;;;;;5003711;28;20496;-79
2022/10/16 06:31:30;;;;;;;5.93;2.07;;;17.80;87.60;;;;;;5019871;28;21057;-80
2022/10/16 06:33:59;;;;;;;5.93;1.70;;;17.80;87.70;;;;;;5005469;28;20462;-79
2022/10/16 06:36:27;;;;;;;10.00;2.10;;;17.80;87.60;;;;;;5003256;28;20489;-78
2022/10/16 06:38:55;;;;;;;7.50;1.50;;;17.80;87.60;;;;;;5002657;28;20527;-80
2022/10/16 06:41:24;;;;;;;5.50;1.87;;;17.80;87.60;;;;;;5000883;28;20481;-78
2022/10/16 06:43:53;;;;;;;4.10;1.63;;;17.80;87.50;;;;;;4999787;28;20453;-80
2022/10/16 06:46:23;;;;;;;5.53;1.70;;;17.80;87.50;;;;;;4997007;28;20544;-79
2022/10/16 06:48:51;;;;;;;3.77;1.30;;;17.80;87.60;;;;;;5000060;28;21069;-78
2022/10/16 06:51:20;;;;;;;4.30;1.77;;;17.80;87.60;;;;;;5002199;28;20486;-80
2022/10/16 06:53:50;;;;;;;4.67;1.70;;;17.80;87.60;;;;;;5007086;28;20506;-78
2022/10/16 06:56:31;;;;;;;4.20;1.70;;;17.80;87.50;;;;;;5015449;28;20548;-78
2022/10/16 06:59:01;;;;;;;7.90;1.93;;;17.80;87.30;;;;;;4997633;28;20456;-80
2022/10/16 07:01:30;;;;;;;7.10;1.73;;;17.80;87.30;;;;;;5000891;28;20479;-78
2022/10/16 07:03:58;;;;;;;5.60;1.90;;;17.80;87.50;;;;;;5017657;28;20852;-78
2022/10/16 07:06:28;;;;;;;6.87;1.70;;;17.80;87.50;;;;;;5001587;28;20446;-78
2022/10/16 07:08:55;;;;;;;4.20;1.53;;;17.80;87.50;;;;;;5005961;28;20453;-80
2022/10/16 07:11:24;;;;;;;5.23;1.73;;;17.80;87.50;;;;;;5017055;28;20512;-80
2022/10/16 07:13:53;;;;;;;5.13;2.00;;;17.80;87.50;;;;;;5002616;28;20457;-80
2022/10/16 07:16:26;;;;;;;6.87;2.20;;;17.80;87.50;;;;;;5001882;28;21047;-79
2022/10/16 07:18:58;;;;;;;5.33;2.30;;;17.80;87.30;;;;;;4993801;28;20452;-78
2022/10/16 07:21:28;;;;;;;7.93;2.30;;;17.80;87.50;;;;;;5011422;28;20477;-78
2022/10/16 07:23:58;;;;;;;6.90;2.13;;;17.80;87.50;;;;;;5017935;28;20457;-80
2022/10/16 07:26:27;;;;;;;6.10;2.80;;;17.80;87.50;;;;;;5017983;28;20999;-79
2022/10/16 07:28:56;;;;;;;13.10;6.10;;;17.80;87.60;;;;;;5019213;28;20463;-86
2022/10/16 07:31:26;;;;;;;7.00;3.63;;;17.80;87.60;;;;;;5014198;28;20485;-79
2022/10/16 07:33:54;;;;;;;7.63;2.77;;;17.80;87.70;;;;;;5012369;28;20470;-78
2022/10/16 07:36:22;;;;;;;7.57;3.03;;;17.80;87.80;;;;;;4996446;28;21304;-78
2022/10/16 07:38:50;;;;;;;6.50;4.10;;;17.80;87.90;;;;;;4999167;28;20473;-78
2022/10/16 07:41:24;;;;;;;7.07;3.63;;;17.80;87.90;;;;;;5001606;28;20574;-78
2022/10/16 07:43:54;;;;;;;5.97;3.00;;;17.90;88.00;;;;;;4995667;28;20480;-77
2022/10/16 07:46:23;;;;;;;6.37;3.80;;;17.90;87.80;;;;;;5000811;28;20515;-77
2022/10/16 07:48:53;;;;;;;6.10;3.10;;;17.90;87.90;;;;;;5004505;28;20464;-78
2022/10/16 07:51:22;;;;;;;8.60;2.97;;;17.90;87.90;;;;;;5018576;28;20480;-79
2022/10/16 07:53:50;;;;;;;5.57;2.10;;;17.90;87.90;;;;;;5003163;28;20453;-78
2022/10/16 07:56:19;;;;;;;6.10;2.03;;;18.00;88.00;;;;;;5019733;28;20520;-79
2022/10/16 07:58:49;;;;;;;4.77;1.83;;;18.00;87.90;;;;;;5004799;28;20452;-78
2022/10/16 08:01:18;;;;;;;4.70;1.43;;;18.00;88.00;;;;;;5004748;28;20477;-78
2022/10/16 08:03:47;;;;;;;5.00;2.23;;;18.00;88.00;;;;;;5006068;28;20961;-79
2022/10/16 08:06:17;;;;;;;6.93;2.90;;;18.00;88.00;;;;;;5003751;28;20457;-78
2022/10/16 08:08:51;;;;;;;6.90;2.23;;;18.10;88.00;;;;;;5000502;28;20464;-78
2022/10/16 08:11:19;;;;;;;6.63;1.93;;;18.10;88.00;;;;;;4999968;28;21316;-78
2022/10/16 08:13:47;;;;;;;8.13;2.13;;;18.10;88.00;;;;;;4998928;28;20436;-77
2022/10/16 08:16:15;;;;;;;5.80;1.87;;;18.10;88.00;;;;;;5002733;28;20488;-77
2022/10/16 08:18:43;;;;;;;5.20;2.27;;;18.10;88.00;;;;;;5007519;28;20453;-78
2022/10/16 08:21:17;;;;;;;7.50;2.10;;;18.10;88.00;;;;;;4996393;28;20469;-78
2022/10/16 08:23:48;;;;;;;7.90;2.43;;;18.20;88.00;;;;;;5017923;28;20459;-78
2022/10/16 08:26:26;;;;;;;5.10;2.00;;;18.20;88.00;;;;;;4999318;28;21090;-78
2022/10/16 08:28:54;;;;;;;5.83;2.10;;;18.20;88.00;;;;;;5001644;28;20456;-77
2022/10/16 08:31:22;;;;;;;5.80;2.63;;;18.20;88.10;;;;;;5001095;28;20476;-79
2022/10/16 08:33:51;;;;;;;7.93;3.03;;;18.30;88.00;;;;;;5002213;28;20457;-78
2022/10/16 08:36:21;;;;;;;5.03;2.03;;;18.30;88.00;;;;;;5019485;28;20466;-77
2022/10/16 08:38:52;;;;;;;4.27;1.80;;;18.30;88.00;;;;;;5001683;28;20475;-77
2022/10/16 08:42:02;;;;;;;6.27;2.40;;;18.30;88.10;;;;;;5001604;28;20503;-78
2022/10/16 08:44:57;;;;;;;5.40;2.07;;;18.40;88.10;;;;;;4973978;28;21108;-78
2022/10/16 08:47:35;;;;;;;4.00;1.80;;;18.40;88.10;;;;;;5012732;28;20469;-77
2022/10/16 08:50:11;;;;;;;6.60;2.90;;;18.50;88.00;;;;;;4998921;28;20511;-77
2022/10/16 08:52:44;;;;;;;6.80;2.57;;;18.50;88.00;;;;;;5014274;28;20461;-79
2022/10/16 08:55:28;;;;;;;7.33;2.13;;;18.50;87.90;;;;;;5000119;28;20460;-75
2022/10/16 08:57:56;;;;;;;7.73;2.43;;;18.50;87.90;;;;;;4998372;28;20863;-78
2022/10/16 09:00:25;;;;;;;9.50;4.20;;;18.50;88.00;;;;;;5002079;28;20933;-79
2022/10/16 09:03:02;;;;;;;7.23;3.27;;;18.60;88.00;;;;;;4997732;28;20458;-78
2022/10/16 09:05:59;;;;;;;10.27;3.90;;;18.60;88.00;;;;;;5001122;28;20465;-79
2022/10/16 09:08:36;;;;;;;6.17;3.00;;;18.60;87.90;;;;;;4990242;28;21090;-78
2022/10/16 09:11:13;;;;;;;7.47;2.30;;;18.70;87.90;;;;;;4996895;28;20481;-79
2022/10/16 09:13:51;;;;;;;5.27;2.07;;;18.70;87.90;;;;;;4998080;28;21257;-78
2022/10/16 09:16:24;;;;;;;9.93;2.40;;;18.70;87.90;;;;;;5002341;28;20572;-78
2022/10/16 09:18:59;;;;;;;9.33;4.20;;;18.70;87.80;;;;;;5018757;28;20459;-78
2022/10/16 09:21:30;;;;;;;8.63;3.20;;;18.70;87.70;;;;;;5017315;28;20483;-79
2022/10/16 09:24:05;;;;;;;10.23;5.30;;;18.70;87.70;;;;;;5014274;28;20545;-78
2022/10/16 09:26:33;;;;;;;9.80;4.03;;;18.70;87.80;;;;;;4999644;28;20522;-77
2022/10/16 09:29:01;;;;;;;7.50;3.20;;;18.70;87.80;;;;;;4997595;28;20465;-77
2022/10/16 09:31:29;;;;;;;7.07;2.27;;;18.70;87.70;;;;;;4994679;28;20568;-79
2022/10/16 09:34:04;;;;;;;4.80;2.20;;;18.70;87.70;;;;;;4999954;28;20456;-78
2022/10/16 09:36:41;;;;;;;4.20;1.97;;;18.70;87.70;;;;;;4998177;28;20468;-77
2022/10/16 09:39:12;;;;;;;11.73;2.00;;;18.70;87.60;;;;;;4996972;28;164959;-77
2022/10/16 09:41:42;;;;;;;6.33;1.67;;;18.70;87.60;;;;;;5003999;28;20512;-78
2022/10/16 09:44:22;;;;;;;6.03;2.47;;;18.70;87.50;;;;;;4999923;28;20514;-79
2022/10/16 09:46:50;;;;;;;5.73;2.03;;;18.70;87.50;;;;;;5003525;28;20967;-79
2022/10/16 09:49:23;;;;;;;4.63;1.93;;;18.70;87.50;;;;;;4996867;28;20505;-78
2022/10/16 09:51:53;;;;;;;4.10;1.80;;;18.70;87.50;;;;;;4999933;28;20488;-78
2022/10/16 09:54:22;;;;;;;7.07;2.00;;;18.70;87.40;;;;;;4999464;28;20484;-79
2022/10/16 09:56:51;;;;;;;7.47;2.47;;;18.70;87.50;;;;;;4998556;28;20540;-78
2022/10/16 09:59:23;;;;;;;4.87;2.10;;;18.70;87.50;;;;;;4997617;28;20468;-79
2022/10/16 10:01:53;;;;;;;7.90;2.57;;;18.60;87.50;;;;;;5020165;28;20473;-78
2022/10/16 10:04:23;;;;;;;5.60;2.33;;;18.60;87.50;;;;;;4999375;28;20481;-76
2022/10/16 10:06:54;;;;;;;5.10;2.07;;;18.60;87.60;;;;;;4994963;28;20446;-79
2022/10/16 10:09:25;;;;;;;9.30;2.30;;;18.60;87.60;;;;;;5016128;28;20875;-77
2022/10/16 10:11:55;;;;;;;11.77;3.43;;;18.60;87.50;;;;;;4999559;28;20493;-77
2022/10/16 10:14:27;;;;;;;7.50;2.87;;;18.60;87.60;;;;;;5014152;28;20453;-78
2022/10/16 10:17:14;;;;;;;7.00;3.30;;;18.60;87.60;;;;;;4997722;28;21184;-77
2022/10/16 10:19:49;;;;;;;8.17;2.80;;;18.50;87.60;;;;;;5013822;28;20465;-79
2022/10/16 10:22:26;;;;;;;7.80;3.33;;;18.50;87.70;;;;;;5000931;28;20493;-79
2022/10/16 10:25:16;;;;;;;6.57;3.10;;;18.50;87.70;;;;;;5011883;28;20462;-78
2022/10/16 10:28:05;;;;;;;7.13;3.33;;;18.50;87.80;;;;;;5014713;28;20461;-78
2022/10/16 10:30:42;;;;;;;6.03;2.30;;;18.50;87.80;;;;;;4989097;28;20488;-78
2022/10/16 10:33:22;;;;;;;6.03;2.93;;;18.50;88.00;;;;;;4999974;28;20511;-79
2022/10/16 10:35:58;;;;;;;6.40;2.43;;;18.50;88.20;;;;;;5010506;28;20493;-79
2022/10/16 10:38:40;;;;;;;6.43;2.37;;;18.60;88.30;;;;;;5003190;28;21179;-79
2022/10/16 10:41:22;;;;;;;6.03;2.43;;;18.60;88.40;;;;;;4996967;28;20480;-78
2022/10/16 10:44:07;;;;;;;5.03;2.20;;;18.60;88.40;;;;;;4997866;28;20485;-79
2022/10/16 10:46:39;;;;;;;6.83;2.50;;;18.70;88.40;;;;;;4999526;28;20450;-76
2022/10/16 10:49:34;;;;;;;8.30;2.50;;;18.70;88.40;;;;;;4998000;28;21277;-78
2022/10/16 10:52:14;;;;;;;5.10;2.60;;;18.70;88.60;;;;;;4996023;28;20502;-77
2022/10/16 10:54:51;;;;;;;5.00;2.00;;;18.80;88.60;;;;;;5020811;28;20449;-79
2022/10/16 10:57:28;;;;;;;5.40;2.20;;;18.80;88.60;;;;;;5002422;28;20529;-80
2022/10/16 11:00:12;;;;;;;6.37;2.60;;;18.90;88.80;;;;;;5003638;28;21038;-79
2022/10/16 11:02:46;;;;;;;5.60;2.43;;;18.90;88.60;;;;;;5003309;28;20876;-79
2022/10/16 11:05:39;;;;;;;5.10;2.30;;;19.00;88.60;;;;;;5008859;28;21020;-80
2022/10/16 11:08:14;;;;;;;12.03;3.07;;;19.00;88.60;;;;;;5001016;28;20536;-79
2022/10/16 11:10:49;;;;;;;4.20;2.10;;;19.00;88.60;;;;;;5006964;28;20495;-78
2022/10/16 11:13:27;;;;;;;4.97;2.40;;;19.00;88.60;;;;;;5007653;28;20456;-77
2022/10/16 11:15:59;;;;;;;10.00;3.00;;;19.00;88.80;;;;;;5005547;28;20463;-78
2022/10/16 11:18:34;;;;;;;5.30;2.20;;;19.10;88.70;;;;;;5006016;28;20473;-79
2022/10/16 11:21:08;;;;;;;4.67;2.20;;;19.10;88.80;;;;;;5004551;28;20468;-79
2022/10/16 11:23:42;;;;;;;5.40;1.90;;;19.10;88.90;;;;;;4998292;28;20470;-76
2022/10/16 11:26:15;;;;;;;3.80;1.90;;;19.20;89.10;;;;;;4995897;28;20462;-80
2022/10/16 11:28:48;;;;;;;3.90;1.80;;;19.20;89.10;;;;;;5015497;28;20449;-78
2022/10/16 11:31:20;;;;;;;5.17;1.70;;;19.30;89.10;;;;;;4999108;28;20553;-78
2022/10/16 11:33:55;;;;;;;5.03;1.53;;;19.30;89.20;;;;;;5007463;28;20743;-78
2022/10/16 11:36:28;;;;;;;7.07;1.70;;;19.30;89.10;;;;;;5016567;28;20466;-79
2022/10/16 11:39:02;;;;;;;3.77;1.37;;;19.40;89.20;;;;;;5020197;28;21022;-79
2022/10/16 11:41:36;;;;;;;4.50;1.40;;;19.50;89.10;;;;;;4990828;28;20497;-78
2022/10/16 11:44:36;;;;;;;7.37;1.43;;;19.50;89.00;;;;;;4999186;28;20496;-78
2022/10/16 11:47:16;;;;;;;4.80;1.60;;;19.50;88.80;;;;;;4998260;28;20983;-79
2022/10/16 11:50:14;;;;;;;5.00;1.70;;;19.60;88.80;;;;;;5015446;28;20463;-80
2022/10/16 11:52:49;;;;;;;8.43;2.30;;;19.60;88.80;;;;;;5014307;28;20456;-79
2022/10/16 11:55:20;;;;;;;3.80;1.40;;;19.60;88.80;;;;;;4998914;28;21173;-79
2022/10/16 11:57:52;;;;;;;4.70;2.07;;;19.60;88.80;;;;;;4998416;28;20563;-77
2022/10/16 12:00:28;;;;;;;5.57;1.87;;;19.70;88.80;;;;;;5016597;28;20458;-79
2022/10/16 12:03:04;;;;;;;5.33;2.10;;;19.70;88.80;;;;;;5013939;28;20883;-79
2022/10/16 12:05:47;;;;;;;7.30;1.80;;;19.80;88.80;;;;;;5018851;28;20482;-77
2022/10/16 12:08:17;;;;;;;8.67;2.53;;;19.80;88.80;;;;;;5013900;28;20461;-77
2022/10/16 12:10:48;;;;;;;5.03;1.70;;;19.80;88.80;;;;;;5011998;28;20484;-79
2022/10/16 12:13:32;;;;;;;5.97;2.47;;;19.90;88.80;;;;;;5002836;28;20496;-80
2022/10/16 12:16:23;;;;;;;6.30;2.37;;;19.90;88.80;;;;;;4999716;28;20472;-76
2022/10/16 12:19:10;;;;;;;6.07;2.17;;;20.00;88.60;;;;;;5020808;28;20527;-79
2022/10/16 12:21:38;;;;;;;6.03;2.20;;;20.00;88.50;;;;;;5001402;28;20577;-78
2022/10/16 12:24:07;;;;;;;6.70;1.93;;;20.00;88.50;;;;;;5015801;28;20472;-80
2022/10/16 12:26:41;;;;;;;8.90;2.07;;;20.00;88.50;;;;;;5012881;28;20506;-79
2022/10/16 12:29:23;;;;;;;4.13;1.93;;;20.00;88.40;;;;;;5001331;28;20463;-78
2022/10/16 12:31:53;;;;;;;9.07;2.70;;;20.10;88.50;;;;;;5014735;28;20485;-78
2022/10/16 12:34:30;;;;;;;6.30;2.57;;;20.10;88.60;;;;;;5003195;28;20975;-78
2022/10/16 12:37:10;;;;;;;4.60;2.10;;;20.20;88.50;;;;;;5017105;28;20939;-77
2022/10/16 12:39:38;;;;;;;7.00;2.13;;;20.20;88.40;;;;;;5009488;28;20476;-78
2022/10/16 12:42:22;;;;;;;5.63;1.83;;;20.30;88.50;;;;;;5016683;28;20527;-77
2022/10/16 12:44:52;;;;;;;6.03;2.30;;;20.30;88.40;;;;;;5001560;28;20539;-78
2022/10/16 12:47:24;;;;;;;4.60;1.83;;;20.40;88.30;;;;;;4999013;28;20491;-80
2022/10/16 12:49:54;;;;;;;13.97;2.10;;;20.40;88.10;;;;;;5011884;28;21040;-77
2022/10/16 12:52:28;;;;;;;7.03;2.50;;;20.40;88.00;;;;;;5015355;28;20486;-77
2022/10/16 12:55:00;;;;;;;5.93;1.77;;;20.40;88.00;;;;;;5014981;28;20460;-76
2022/10/16 12:57:46;;;;;;;4.63;1.93;;;20.50;87.90;;;;;;4999617;28;20479;-79
2022/10/16 13:00:25;;;;;;;4.63;1.97;;;20.50;88.10;;;;;;4999910;28;20480;-79
2022/10/16 13:03:23;;;;;;;4.43;2.10;;;20.60;88.10;;;;;;5004547;28;20485;-78
2022/10/16 13:06:07;;;;;;;5.53;2.10;;;20.70;87.90;;;;;;5021444;28;20468;-79
2022/10/16 13:08:49;;;;;;;9.60;3.00;;;20.80;87.60;;;;;;5023002;28;20460;-79
2022/10/16 13:11:27;;;;;;;7.73;2.33;;;20.80;87.10;;;;;;5003902;28;21012;-76